createdAt,value
2023-01-17T00:02:19.360Z,72.80
2023-01-17T00:05:05.078Z,72.80
2023-01-17T00:07:50.603Z,72.80
2023-01-17T00:10:19.734Z,72.90
2023-01-17T00:12:49.922Z,72.90
2023-01-17T00:15:19.889Z,73.00
2023-01-17T00:17:48.041Z,72.90
2023-01-17T00:20:33.578Z,73.00
2023-01-17T00:23:19.200Z,73.10
2023-01-17T00:26:05.479Z,73.00
2023-01-17T00:28:34.890Z,72.90
2023-01-17T00:31:02.115Z,73.10
2023-01-17T00:33:29.045Z,72.90
2023-01-17T00:35:56.660Z,73.00
2023-01-17T00:38:28.756Z,73.00
2023-01-17T00:41:00.146Z,72.90
2023-01-17T00:43:45.588Z,73.00
2023-01-17T00:46:32.497Z,73.00
2023-01-17T00:49:18.319Z,72.90
2023-01-17T00:52:03.869Z,73.00
2023-01-17T00:54:49.100Z,72.90
2023-01-17T00:57:34.491Z,72.90
2023-01-17T01:00:19.953Z,72.90
2023-01-17T01:03:06.686Z,72.90
2023-01-17T01:05:52.333Z,72.90
2023-01-17T01:08:39.298Z,73.00
2023-01-17T01:11:26.381Z,72.90
2023-01-17T01:14:17.237Z,73.00
2023-01-17T01:17:02.838Z,73.00
2023-01-17T01:19:49.562Z,73.00
2023-01-17T01:22:35.191Z,73.00
2023-01-17T01:25:20.621Z,73.00
2023-01-17T01:28:06.253Z,72.90
2023-01-17T01:30:51.506Z,72.90
2023-01-17T01:33:21.322Z,72.70
2023-01-17T01:35:51.460Z,72.80
2023-01-17T01:38:20.123Z,72.80
2023-01-17T01:40:48.955Z,72.80
2023-01-17T01:43:17.912Z,72.70
2023-01-17T01:45:47.854Z,72.70
2023-01-17T01:48:33.269Z,72.80
2023-01-17T01:51:03.140Z,72.70
2023-01-17T01:53:35.904Z,72.80
2023-01-17T01:56:03.955Z,72.80
2023-01-17T01:58:33.220Z,72.80
2023-01-17T02:01:01.351Z,72.80
2023-01-17T02:03:35.074Z,72.80
2023-01-17T02:06:08.674Z,72.70
2023-01-17T02:08:36.736Z,72.70
2023-01-17T02:11:04.850Z,72.70
2023-01-17T02:13:32.897Z,72.60
2023-01-17T02:16:04.071Z,72.70
2023-01-17T02:18:38.668Z,72.60
2023-01-17T02:21:16.341Z,72.70
2023-01-17T02:24:24.399Z,72.50
2023-01-17T02:26:57.700Z,72.50
2023-01-17T02:30:02.699Z,72.50
2023-01-17T02:32:40.321Z,72.40
2023-01-17T02:35:11.201Z,72.30
2023-01-17T02:37:43.492Z,72.30
2023-01-17T02:40:13.718Z,72.40
2023-01-17T02:42:43.586Z,72.30
2023-01-17T02:45:16.707Z,72.10
2023-01-17T02:47:46.178Z,72.40
2023-01-17T02:50:15.487Z,72.30
2023-01-17T02:52:51.880Z,72.10
2023-01-17T02:55:26.020Z,72.10
2023-01-17T02:58:06.296Z,72.00
2023-01-17T03:00:39.806Z,72.00
2023-01-17T03:03:12.525Z,71.90
2023-01-17T03:05:42.214Z,71.90
2023-01-17T03:08:10.285Z,71.80
2023-01-17T03:10:38.359Z,71.80
2023-01-17T03:13:06.411Z,72.00
2023-01-17T03:15:34.473Z,71.70
2023-01-17T03:18:05.014Z,71.60
2023-01-17T03:20:37.014Z,71.60
2023-01-17T03:23:05.099Z,71.60
2023-01-17T03:25:33.369Z,71.40
2023-01-17T03:28:01.439Z,71.40
2023-01-17T03:30:29.557Z,71.30
2023-01-17T03:32:57.704Z,71.30
2023-01-17T03:35:25.756Z,71.50
2023-01-17T03:37:55.195Z,71.30
2023-01-17T03:40:23.251Z,71.30
2023-01-17T03:42:51.309Z,71.30
2023-01-17T03:45:19.906Z,71.30
2023-01-17T03:47:47.996Z,71.40
2023-01-17T03:50:16.213Z,71.30
2023-01-17T03:52:44.276Z,71.20
2023-01-17T03:55:13.730Z,71.30
2023-01-17T03:57:41.794Z,71.10
2023-01-17T04:00:10.980Z,71.10
2023-01-17T04:02:39.089Z,71.10
2023-01-17T04:05:07.404Z,71.10
2023-01-17T04:07:35.436Z,71.10
2023-01-17T04:10:03.464Z,71.10
2023-01-17T04:12:32.890Z,71.10
2023-01-17T04:15:00.950Z,71.20
2023-01-17T04:17:29.023Z,71.00
2023-01-17T04:19:57.062Z,70.90
2023-01-17T04:22:25.132Z,70.90
2023-01-17T04:24:53.169Z,70.80
2023-01-17T04:27:21.231Z,70.70
2023-01-17T04:29:50.661Z,70.80
2023-01-17T04:32:29.952Z,70.80
2023-01-17T04:34:57.974Z,70.80
2023-01-17T04:37:29.187Z,70.90
2023-01-17T04:39:57.258Z,70.90
2023-01-17T04:42:51.383Z,70.90
2023-01-17T04:45:21.012Z,70.90
2023-01-17T04:47:49.067Z,70.90
2023-01-17T04:50:17.296Z,70.80
2023-01-17T04:53:10.755Z,70.80
2023-01-17T04:55:38.810Z,70.70
2023-01-17T04:58:11.213Z,70.90
2023-01-17T05:00:54.962Z,70.70
2023-01-17T05:03:23.651Z,70.90
2023-01-17T05:05:59.225Z,70.80
2023-01-17T05:08:29.251Z,70.80
2023-01-17T05:10:57.308Z,70.70
2023-01-17T05:13:25.357Z,70.60
2023-01-17T05:15:54.808Z,70.70
2023-01-17T05:18:22.978Z,70.70
2023-01-17T05:20:53.209Z,70.90
2023-01-17T05:23:35.226Z,70.90
2023-01-17T05:26:03.296Z,70.80
2023-01-17T05:28:58.780Z,70.80
2023-01-17T05:31:28.177Z,70.80
2023-01-17T05:33:56.247Z,70.80
2023-01-17T05:36:29.236Z,70.80
2023-01-17T05:39:16.810Z,70.80
2023-01-17T05:41:47.301Z,70.90
2023-01-17T05:44:16.259Z,70.80
2023-01-17T05:47:00.707Z,70.90
2023-01-17T05:49:28.739Z,70.90
2023-01-17T05:52:11.255Z,70.80
2023-01-17T05:54:47.542Z,70.80
2023-01-17T05:57:40.817Z,70.80
2023-01-17T06:00:10.199Z,70.90
2023-01-17T06:02:39.645Z,70.90
2023-01-17T06:05:11.357Z,70.80
2023-01-17T06:07:41.375Z,70.80
2023-01-17T06:10:40.859Z,70.80
2023-01-17T06:13:20.940Z,70.80
2023-01-17T06:16:05.531Z,70.90
2023-01-17T06:18:48.804Z,70.80
2023-01-17T06:21:16.875Z,70.90
2023-01-17T06:23:47.295Z,71.00
2023-01-17T06:26:15.372Z,71.00
2023-01-17T06:28:43.423Z,70.90
2023-01-17T06:31:52.716Z,71.00
2023-01-17T06:34:22.149Z,70.90
2023-01-17T06:37:05.217Z,70.90
2023-01-17T06:39:33.260Z,70.90
2023-01-17T06:42:01.370Z,70.80
2023-01-17T06:44:29.438Z,70.70
2023-01-17T06:46:57.513Z,71.00
2023-01-17T06:49:30.836Z,70.90
2023-01-17T06:51:58.956Z,70.80
2023-01-17T06:54:27.105Z,70.70
2023-01-17T06:56:59.325Z,70.90
2023-01-17T06:59:29.318Z,70.80
2023-01-17T07:02:05.310Z,70.80
2023-01-17T07:04:37.390Z,71.00
2023-01-17T07:07:05.495Z,70.90
2023-01-17T07:09:33.572Z,70.80
2023-01-17T07:12:02.086Z,70.80
2023-01-17T07:14:47.214Z,71.10
2023-01-17T07:17:29.347Z,71.00
2023-01-17T07:20:00.709Z,70.90
2023-01-17T07:22:41.379Z,70.90
2023-01-17T07:25:10.271Z,70.90
2023-01-17T07:27:41.360Z,70.90
2023-01-17T07:30:10.933Z,71.00
2023-01-17T07:32:38.990Z,70.90
2023-01-17T07:35:12.895Z,71.10
2023-01-17T07:37:40.955Z,71.10
2023-01-17T07:40:18.546Z,71.10
2023-01-17T07:42:46.743Z,71.00
2023-01-17T07:45:23.348Z,71.00
2023-01-17T07:47:51.455Z,71.10
2023-01-17T07:50:24.987Z,71.00
2023-01-17T07:52:53.107Z,71.10
2023-01-17T07:55:40.906Z,71.10
2023-01-17T07:58:17.384Z,71.00
2023-01-17T08:00:53.473Z,71.00
2023-01-17T08:03:21.633Z,71.10
2023-01-17T08:06:24.883Z,71.00
2023-01-17T08:08:55.109Z,71.10
2023-01-17T08:11:23.370Z,71.10
2023-01-17T08:14:05.460Z,71.00
2023-01-17T08:16:47.435Z,71.00
2023-01-17T08:19:23.420Z,71.10
2023-01-17T08:22:00.920Z,71.00
2023-01-17T08:24:58.918Z,71.00
2023-01-17T08:27:30.043Z,71.20
2023-01-17T08:30:12.413Z,71.10
2023-01-17T08:33:04.943Z,71.10
2023-01-17T08:35:35.509Z,71.10
2023-01-17T08:38:42.508Z,71.20
2023-01-17T08:41:17.467Z,71.00
2023-01-17T08:43:53.414Z,71.20
2023-01-17T08:46:35.424Z,70.90
2023-01-17T08:49:03.783Z,71.00
2023-01-17T08:51:32.889Z,71.10
2023-01-17T08:54:02.349Z,71.10
2023-01-17T08:56:30.393Z,70.90
2023-01-17T08:58:58.498Z,70.90
2023-01-17T09:01:26.702Z,71.10
2023-01-17T09:03:54.952Z,71.10
2023-01-17T09:06:23.020Z,71.00
2023-01-17T09:08:54.801Z,71.00
2023-01-17T09:11:24.245Z,70.90
2023-01-17T09:13:53.704Z,71.10
2023-01-17T09:16:23.435Z,70.90
2023-01-17T09:18:55.016Z,70.80
2023-01-17T09:21:23.102Z,70.90
2023-01-17T09:23:51.173Z,70.90
2023-01-17T09:26:20.845Z,70.90
2023-01-17T09:28:50.433Z,70.70
2023-01-17T09:31:18.558Z,71.00
2023-01-17T09:33:53.805Z,70.90
2023-01-17T09:36:22.211Z,71.00
2023-01-17T09:38:50.328Z,70.90
2023-01-17T09:41:22.941Z,71.10
2023-01-17T09:44:06.379Z,70.90
2023-01-17T09:46:38.783Z,71.00
2023-01-17T09:49:09.143Z,70.90
2023-01-17T09:51:37.242Z,70.70
2023-01-17T09:54:05.648Z,70.80
2023-01-17T09:56:36.507Z,70.70
2023-01-17T09:59:18.915Z,70.80
2023-01-17T10:01:50.170Z,71.00
2023-01-17T10:04:33.970Z,70.90
2023-01-17T10:07:10.485Z,70.90
2023-01-17T10:09:49.912Z,70.70
2023-01-17T10:12:38.449Z,70.80
2023-01-17T10:15:25.380Z,70.80
2023-01-17T10:17:56.847Z,70.90
2023-01-17T10:20:44.557Z,70.90
2023-01-17T10:23:25.272Z,70.90
2023-01-17T10:25:53.713Z,70.70
2023-01-17T10:28:41.913Z,70.90
2023-01-17T10:31:36.917Z,70.90
2023-01-17T10:34:41.716Z,70.80
2023-01-17T10:37:17.035Z,70.90
2023-01-17T10:39:45.707Z,70.80
2023-01-17T10:42:17.115Z,70.80
2023-01-17T10:44:49.865Z,70.80
2023-01-17T10:47:27.979Z,70.80
2023-01-17T10:49:57.954Z,70.80
2023-01-17T10:52:31.734Z,70.90
2023-01-17T10:55:08.789Z,70.90
2023-01-17T10:57:39.606Z,71.00
2023-01-17T11:00:27.735Z,70.80
2023-01-17T11:02:57.256Z,71.00
2023-01-17T11:05:26.109Z,70.90
2023-01-17T11:08:01.300Z,71.00
2023-01-17T11:10:44.505Z,70.90
2023-01-17T11:13:26.944Z,71.00
2023-01-17T11:16:02.235Z,71.10
2023-01-17T11:18:43.162Z,71.10
2023-01-17T11:21:24.304Z,71.20
2023-01-17T11:24:11.975Z,71.10
2023-01-17T11:26:47.612Z,71.00
2023-01-17T11:29:17.296Z,71.10
2023-01-17T11:31:45.355Z,71.20
2023-01-17T11:34:18.643Z,71.20
2023-01-17T11:36:48.511Z,71.10
2023-01-17T11:39:29.571Z,71.20
2023-01-17T11:41:57.679Z,71.20
2023-01-17T11:44:41.530Z,71.30
2023-01-17T11:47:35.148Z,71.30
2023-01-17T11:50:27.686Z,71.30
2023-01-17T11:52:56.751Z,71.40
2023-01-17T11:55:35.549Z,71.30
2023-01-17T11:58:18.434Z,71.40
2023-01-17T12:01:15.898Z,71.40
2023-01-17T12:04:12.328Z,71.50
2023-01-17T12:06:57.207Z,71.50
2023-01-17T12:09:33.117Z,71.50
2023-01-17T12:12:32.817Z,71.60
2023-01-17T12:15:11.553Z,71.50
2023-01-17T12:17:56.094Z,71.60
2023-01-17T12:20:27.975Z,71.70
2023-01-17T12:23:26.594Z,71.60
2023-01-17T12:26:00.350Z,71.70
2023-01-17T12:28:47.254Z,71.70
2023-01-17T12:31:21.358Z,71.60
2023-01-17T12:33:54.711Z,71.70
2023-01-17T12:36:37.630Z,71.70
2023-01-17T12:39:19.760Z,71.70
2023-01-17T12:42:07.009Z,71.70
2023-01-17T12:44:45.467Z,71.80
2023-01-17T12:47:30.216Z,71.80
2023-01-17T12:50:03.269Z,71.80
2023-01-17T12:52:41.762Z,71.80
2023-01-17T12:55:15.269Z,71.80
2023-01-17T12:58:05.982Z,71.90
2023-01-17T13:00:51.299Z,71.90
2023-01-17T13:03:43.077Z,71.90
2023-01-17T13:06:12.200Z,71.90
2023-01-17T13:08:59.409Z,71.90
2023-01-17T13:11:46.545Z,71.90
2023-01-17T13:14:17.645Z,71.90
2023-01-17T13:16:47.460Z,71.90
2023-01-17T13:19:20.632Z,72.00
2023-01-17T13:21:53.626Z,71.90
2023-01-17T13:24:30.157Z,72.00
2023-01-17T13:27:30.698Z,72.00
2023-01-17T13:30:15.385Z,72.00
2023-01-17T13:32:56.851Z,72.00
2023-01-17T13:35:27.747Z,72.00
2023-01-17T13:38:10.453Z,72.10
2023-01-17T13:40:44.151Z,72.10
2023-01-17T13:43:22.169Z,72.10
2023-01-17T13:46:01.362Z,72.10
2023-01-17T13:48:33.131Z,72.00
2023-01-17T13:51:05.819Z,72.30
2023-01-17T13:54:27.904Z,72.10
2023-01-17T13:57:40.741Z,72.10
2023-01-17T14:00:59.297Z,72.30
2023-01-17T14:04:06.283Z,72.30
2023-01-17T14:06:41.876Z,72.30
2023-01-17T14:09:16.582Z,72.30
2023-01-17T14:12:02.220Z,72.30
2023-01-17T14:14:45.549Z,72.30
2023-01-17T14:17:36.237Z,72.30
2023-01-17T14:20:47.185Z,72.40
2023-01-17T14:23:51.627Z,72.40
2023-01-17T14:26:34.375Z,72.30
2023-01-17T14:29:39.123Z,72.40
2023-01-17T14:32:07.942Z,72.40
2023-01-17T14:34:41.707Z,72.40
2023-01-17T14:37:20.419Z,72.40
2023-01-17T14:40:17.932Z,72.40
2023-01-17T14:42:48.402Z,72.40
2023-01-17T14:45:41.285Z,72.40
2023-01-17T14:48:15.756Z,72.50
2023-01-17T14:50:44.220Z,72.50
2023-01-17T14:53:20.189Z,72.40
2023-01-17T14:55:57.543Z,72.50
2023-01-17T14:58:27.084Z,72.50
2023-01-17T15:00:58.048Z,72.50
2023-01-17T15:03:26.254Z,72.40
2023-01-17T15:06:11.252Z,72.50
2023-01-17T15:08:39.312Z,72.50
2023-01-17T15:11:18.435Z,72.50
2023-01-17T15:13:47.491Z,72.50
2023-01-17T15:16:20.446Z,72.50
2023-01-17T15:18:48.686Z,72.50
2023-01-17T15:21:19.325Z,72.60
2023-01-17T15:23:48.239Z,72.50
2023-01-17T15:26:19.184Z,72.60
2023-01-17T15:29:03.380Z,72.60
2023-01-17T15:31:40.142Z,72.60
2023-01-17T15:34:09.263Z,72.60
2023-01-17T15:36:38.584Z,72.60
2023-01-17T15:39:08.460Z,72.60
2023-01-17T15:41:39.646Z,72.60
2023-01-17T15:44:07.818Z,72.60
2023-01-17T15:46:42.614Z,72.60
2023-01-17T15:49:18.385Z,72.60
2023-01-17T15:51:52.005Z,72.70
2023-01-17T15:54:41.509Z,72.60
2023-01-17T15:57:20.052Z,72.60
2023-01-17T15:59:48.999Z,72.60
2023-01-17T16:02:31.627Z,72.60
2023-01-17T16:05:34.387Z,72.60
2023-01-17T16:08:33.362Z,72.70
2023-01-17T16:11:03.014Z,72.60
2023-01-17T16:13:33.625Z,72.60
2023-01-17T16:16:19.508Z,72.60
2023-01-17T16:18:47.959Z,72.60
2023-01-17T16:21:19.783Z,72.60
2023-01-17T16:23:47.848Z,72.60
2023-01-17T16:26:30.150Z,72.60
2023-01-17T16:29:01.240Z,72.60
2023-01-17T16:31:29.779Z,72.60
2023-01-17T16:33:57.848Z,72.50
2023-01-17T16:36:41.817Z,72.60
2023-01-17T16:39:12.104Z,72.60
2023-01-17T16:41:40.227Z,72.60
2023-01-17T16:44:42.877Z,72.60
2023-01-17T16:47:10.889Z,72.50
2023-01-17T16:50:05.577Z,72.50
2023-01-17T16:52:41.799Z,72.50
2023-01-17T16:55:12.154Z,72.50
2023-01-17T16:57:40.243Z,72.50
2023-01-17T17:00:11.073Z,72.50
2023-01-17T17:03:23.336Z,72.50
2023-01-17T17:05:57.095Z,72.50
2023-01-17T17:08:25.270Z,72.40
2023-01-17T17:10:53.370Z,72.40
2023-01-17T17:13:21.415Z,72.40
2023-01-17T17:15:50.964Z,72.40
2023-01-17T17:18:19.376Z,72.30
2023-01-17T17:20:49.556Z,72.40
2023-01-17T17:23:17.588Z,72.40
2023-01-17T17:25:45.663Z,72.30
2023-01-17T17:28:13.736Z,72.30
2023-01-17T17:30:41.796Z,72.30
2023-01-17T17:33:12.121Z,72.30
2023-01-17T17:35:40.202Z,72.30
2023-01-17T17:38:08.269Z,72.30
2023-01-17T17:40:36.353Z,72.10
2023-01-17T17:43:04.411Z,72.10
2023-01-17T17:45:32.466Z,72.10
2023-01-17T17:48:00.509Z,72.10
2023-01-17T17:50:29.960Z,72.00
2023-01-17T17:52:58.037Z,72.00
2023-01-17T17:55:29.869Z,72.00
2023-01-17T17:57:57.933Z,72.00
2023-01-17T18:00:26.136Z,72.00
2023-01-17T18:02:54.217Z,71.90
2023-01-17T18:05:23.891Z,71.90
2023-01-17T18:07:53.678Z,71.90
2023-01-17T18:10:21.826Z,71.90
2023-01-17T18:12:50.337Z,71.90
2023-01-17T18:15:18.621Z,71.90
2023-01-17T18:17:47.277Z,71.90
2023-01-17T18:20:15.674Z,71.90
2023-01-17T18:22:43.776Z,71.80
2023-01-17T18:25:13.219Z,71.80
2023-01-17T18:27:45.020Z,71.70
2023-01-17T18:30:13.560Z,71.80
2023-01-17T18:32:42.703Z,71.70
2023-01-17T18:35:11.155Z,71.70
2023-01-17T18:37:39.587Z,71.70
2023-01-17T18:40:08.424Z,71.70
2023-01-17T18:42:37.834Z,71.60
2023-01-17T18:45:06.951Z,71.60
2023-01-17T18:47:35.610Z,71.70
2023-01-17T18:50:04.561Z,71.60
2023-01-17T18:52:33.934Z,71.60
2023-01-17T18:55:06.517Z,71.60
2023-01-17T18:57:34.594Z,71.60
2023-01-17T19:00:04.647Z,71.50
2023-01-17T19:02:32.750Z,71.60
2023-01-17T19:05:08.615Z,71.60
2023-01-17T19:07:36.771Z,71.50
2023-01-17T19:10:05.242Z,71.50
2023-01-17T19:12:35.937Z,71.40
2023-01-17T19:15:05.985Z,71.20
2023-01-17T19:17:34.079Z,71.30
2023-01-17T19:20:02.137Z,71.30
2023-01-17T19:23:05.564Z,71.30
2023-01-17T19:25:35.992Z,71.30
2023-01-17T19:28:04.303Z,71.20
2023-01-17T19:30:34.365Z,71.20
2023-01-17T19:33:02.443Z,71.30
2023-01-17T19:35:30.484Z,71.20
2023-01-17T19:37:58.793Z,70.90
2023-01-17T19:40:27.087Z,71.20
2023-01-17T19:42:55.171Z,71.10
2023-01-17T19:45:23.283Z,71.00
2023-01-17T19:47:52.757Z,71.10
2023-01-17T19:50:20.941Z,71.10
2023-01-17T19:52:49.002Z,71.00
2023-01-17T19:55:17.713Z,70.90
2023-01-17T19:57:45.765Z,71.00
2023-01-17T20:00:14.602Z,71.00
2023-01-17T20:02:42.726Z,70.90
2023-01-17T20:05:12.241Z,70.80
2023-01-17T20:07:40.270Z,70.80
2023-01-17T20:10:09.416Z,70.80
2023-01-17T20:12:37.497Z,70.60
2023-01-17T20:15:06.286Z,70.80
2023-01-17T20:17:34.738Z,70.80
2023-01-17T20:20:06.114Z,70.60
2023-01-17T20:22:35.523Z,70.60
2023-01-17T20:25:03.611Z,70.60
2023-01-17T20:27:31.663Z,70.70
2023-01-17T20:30:08.194Z,70.70
2023-01-17T20:32:47.096Z,70.70
2023-01-17T20:35:16.064Z,70.70
2023-01-17T20:37:45.520Z,70.70
2023-01-17T20:40:14.086Z,70.60
2023-01-17T20:42:42.136Z,70.60
2023-01-17T20:45:11.085Z,70.40
2023-01-17T20:47:39.145Z,70.30
2023-01-17T20:50:08.850Z,70.50
2023-01-17T20:52:37.042Z,70.40
2023-01-17T20:55:08.357Z,70.30
2023-01-17T20:57:36.738Z,70.40
2023-01-17T21:00:05.855Z,70.40
2023-01-17T21:02:33.935Z,70.30
2023-01-17T21:05:12.953Z,70.10
2023-01-17T21:07:41.018Z,70.10
2023-01-17T21:10:11.814Z,70.20
2023-01-17T21:12:39.880Z,70.20
2023-01-17T21:15:09.523Z,70.10
2023-01-17T21:17:44.353Z,70.10
2023-01-17T21:20:13.876Z,70.10
2023-01-17T21:22:42.038Z,69.90
2023-01-17T21:25:11.646Z,69.90
2023-01-17T21:27:39.947Z,69.70
2023-01-17T21:30:09.936Z,69.90
2023-01-17T21:32:37.965Z,69.90
2023-01-17T21:35:07.748Z,69.90
2023-01-17T21:37:42.059Z,69.90
2023-01-17T21:40:14.623Z,69.80
2023-01-17T21:42:42.677Z,69.70
2023-01-17T21:45:11.537Z,69.60
2023-01-17T21:47:41.038Z,69.80
2023-01-17T21:50:10.499Z,69.70
2023-01-17T21:52:38.578Z,69.60
2023-01-17T21:55:25.192Z,69.70
2023-01-17T21:58:11.929Z,69.70
2023-01-17T22:00:43.075Z,69.70
2023-01-17T22:03:11.132Z,69.60
2023-01-17T22:05:39.201Z,69.60
2023-01-17T22:08:14.776Z,69.60
2023-01-17T22:10:45.798Z,69.50
2023-01-17T22:13:15.892Z,69.50
2023-01-17T22:15:44.058Z,69.60
2023-01-17T22:18:18.090Z,69.50
2023-01-17T22:20:46.159Z,69.40
2023-01-17T22:23:14.229Z,69.50
2023-01-17T22:25:42.305Z,69.20
2023-01-17T22:28:10.478Z,69.30
2023-01-17T22:30:39.911Z,69.30
2023-01-17T22:33:08.003Z,69.40
2023-01-17T22:35:36.063Z,69.30
2023-01-17T22:38:06.112Z,69.20
2023-01-17T22:40:38.161Z,68.90
2023-01-17T22:43:06.334Z,68.90
2023-01-17T22:45:34.454Z,69.00
2023-01-17T22:48:03.877Z,69.00
2023-01-17T22:50:31.948Z,69.20
2023-01-17T22:53:00.011Z,68.80
2023-01-17T22:55:28.059Z,69.00
2023-01-17T22:57:56.922Z,69.00
2023-01-17T23:00:31.607Z,68.90
2023-01-17T23:03:00.053Z,69.00
2023-01-17T23:05:29.861Z,68.90
2023-01-17T23:07:57.896Z,68.70
2023-01-17T23:10:47.409Z,68.80
2023-01-17T23:13:15.519Z,68.80
2023-01-17T23:16:01.264Z,68.70
2023-01-17T23:18:46.657Z,68.80
2023-01-17T23:21:16.109Z,68.90
2023-01-17T23:23:44.153Z,68.80
2023-01-17T23:26:12.247Z,68.60
2023-01-17T23:28:39.337Z,68.70
2023-01-17T23:31:08.731Z,68.70
2023-01-17T23:33:49.088Z,68.60
2023-01-17T23:36:18.591Z,68.80
2023-01-17T23:38:46.649Z,68.70
2023-01-17T23:41:32.050Z,68.80
2023-01-17T23:44:00.142Z,68.80
2023-01-17T23:46:30.201Z,68.30
2023-01-17T23:48:58.360Z,68.70
2023-01-17T23:51:27.835Z,68.50
2023-01-17T23:54:05.210Z,68.40
2023-01-17T23:56:33.326Z,68.50
2023-01-17T23:59:02.043Z,68.40
